Battle Harbour, Canada
Current Conditions -  °F | °C
As of 10:00 AM on Monday 26 Jan 2015 (Local Time) from CYMH Reporting Station
Few Clouds Few Clouds  
Wind Chill: -24°   Ceiling: Unl
Heat Index: -15°   Visibility: 15mi
Dew Point: -22°   Wind: 13mph
Humidity: 56%   Direction: 270°W
Pressure: 29.38"   Gusts: 20mph
Location:  52.27°N, 55.58°W
Report Text: CYMH 261400Z 27011G17KT 15SM FEW150 M15/M22 A2938 RMK AC1 SLP950
Loading
Personal Weather Stations






























Interactive Weather Map New forecast layout! Learn more

10-Day Weather Forecast

Advertisements
Track Severe Weather on mobile